createdAt,value
2023-08-21T00:00:56.810Z,78.21
2023-08-21T00:03:29.219Z,78.03
2023-08-21T00:06:01.652Z,78.06
2023-08-21T00:08:34.262Z,78.21
2023-08-21T00:11:06.650Z,78.30
2023-08-21T00:13:38.993Z,78.39
2023-08-21T00:16:13.913Z,78.45
2023-08-21T00:18:46.662Z,78.75
2023-08-21T00:21:19.124Z,78.60
2023-08-21T00:23:51.638Z,78.31
2023-08-21T00:26:24.050Z,77.83
2023-08-21T00:28:56.660Z,77.45
2023-08-21T00:31:31.668Z,77.81
2023-08-21T00:34:04.018Z,78.33
2023-08-21T00:36:36.564Z,78.94
2023-08-21T00:39:09.380Z,79.37
2023-08-21T00:41:41.792Z,79.35
2023-08-21T00:44:14.254Z,79.24
2023-08-21T00:46:49.628Z,78.72
2023-08-21T00:49:22.253Z,78.78
2023-08-21T00:51:56.649Z,79.19
2023-08-21T00:54:29.368Z,79.33
2023-08-21T00:57:01.871Z,79.09
2023-08-21T00:59:35.972Z,79.16
2023-08-21T01:02:11.056Z,78.93
2023-08-21T01:04:43.525Z,78.66
2023-08-21T01:07:16.200Z,78.66
2023-08-21T01:09:57.845Z,79.07
2023-08-21T01:12:40.230Z,79.16
2023-08-21T01:15:14.079Z,79.08
2023-08-21T01:17:51.136Z,78.64
2023-08-21T01:20:25.119Z,78.71
2023-08-21T01:22:57.379Z,78.76
2023-08-21T01:25:32.392Z,78.91
2023-08-21T01:28:04.960Z,78.97
2023-08-21T01:30:40.539Z,78.74
2023-08-21T01:33:20.652Z,78.55
2023-08-21T01:35:54.302Z,78.66
2023-08-21T01:38:26.721Z,78.64
2023-08-21T01:41:02.059Z,78.67
2023-08-21T01:43:34.513Z,79.18
2023-08-21T01:46:07.458Z,79.07
2023-08-21T01:48:40.210Z,79.61
2023-08-21T01:51:12.795Z,79.68
2023-08-21T01:53:45.111Z,79.48
2023-08-21T01:56:20.024Z,79.80
2023-08-21T01:58:52.417Z,79.71
2023-08-21T02:01:24.797Z,79.55
2023-08-21T02:03:57.115Z,79.61
2023-08-21T02:06:29.382Z,79.79
2023-08-21T02:09:01.911Z,79.54
2023-08-21T02:11:36.838Z,79.37
2023-08-21T02:14:09.139Z,78.98
2023-08-21T02:16:41.486Z,79.12
2023-08-21T02:19:14.107Z,79.38
2023-08-21T02:21:46.435Z,79.29
2023-08-21T02:24:18.782Z,79.16
2023-08-21T02:26:53.758Z,79.32
2023-08-21T02:29:26.597Z,79.18
2023-08-21T02:32:00.209Z,79.74
2023-08-21T02:34:32.556Z,79.77
2023-08-21T02:37:06.339Z,80.69
2023-08-21T02:39:39.842Z,80.76
2023-08-21T02:42:14.948Z,80.54
2023-08-21T02:44:48.117Z,80.44
2023-08-21T02:47:20.450Z,80.14
2023-08-21T02:49:53.117Z,80.37
2023-08-21T02:52:25.398Z,80.30
2023-08-21T02:54:57.778Z,80.14
2023-08-21T02:57:33.484Z,80.38
2023-08-21T03:00:12.383Z,80.25
2023-08-21T03:02:45.621Z,79.99
2023-08-21T03:05:18.230Z,80.28
2023-08-21T03:07:50.488Z,80.21
2023-08-21T03:10:24.886Z,80.36
2023-08-21T03:13:00.291Z,80.29
2023-08-21T03:15:32.905Z,79.97
2023-08-21T03:18:05.430Z,79.68
2023-08-21T03:20:37.888Z,79.89
2023-08-21T03:23:10.263Z,80.28
2023-08-21T03:25:42.580Z,80.32
2023-08-21T03:28:17.549Z,80.48
2023-08-21T03:30:50.184Z,80.26
2023-08-21T03:33:22.565Z,80.16
2023-08-21T03:35:59.142Z,79.92
2023-08-21T03:38:31.457Z,80.17
2023-08-21T03:41:03.888Z,80.10
2023-08-21T03:43:38.793Z,79.66
2023-08-21T03:46:11.218Z,79.59
2023-08-21T03:48:43.741Z,79.42
2023-08-21T03:51:16.150Z,79.76
2023-08-21T03:53:48.500Z,79.69
2023-08-21T03:56:20.888Z,79.81
2023-08-21T03:58:56.071Z,80.11
2023-08-21T04:01:28.467Z,80.27
2023-08-21T04:04:00.862Z,80.36
2023-08-21T04:06:33.150Z,80.40
2023-08-21T04:09:07.544Z,80.25
2023-08-21T04:11:39.885Z,79.91
2023-08-21T04:14:14.905Z,79.96
2023-08-21T04:16:47.284Z,79.80
2023-08-21T04:19:20.017Z,80.01
2023-08-21T04:21:52.336Z,80.36
2023-08-21T04:24:24.639Z,80.45
2023-08-21T04:26:57.031Z,80.24
2023-08-21T04:29:32.299Z,79.99
2023-08-21T04:32:04.694Z,79.95
2023-08-21T04:34:37.904Z,80.13
2023-08-21T04:37:13.007Z,80.76
2023-08-21T04:39:47.040Z,80.75
2023-08-21T04:42:19.378Z,80.55
2023-08-21T04:44:54.808Z,80.77
2023-08-21T04:47:29.334Z,80.80
2023-08-21T04:50:02.539Z,80.70
2023-08-21T04:52:34.799Z,80.79
2023-08-21T04:55:07.272Z,80.88
2023-08-21T04:57:39.554Z,80.96
2023-08-21T05:00:17.115Z,81.15
2023-08-21T05:02:49.461Z,80.91
2023-08-21T05:05:21.941Z,80.95
2023-08-21T05:07:54.258Z,80.91
2023-08-21T05:10:26.769Z,81.15
2023-08-21T05:13:01.981Z,81.09
2023-08-21T05:15:36.824Z,81.08
2023-08-21T05:18:09.697Z,80.85
2023-08-21T05:20:44.296Z,80.80
2023-08-21T05:23:16.661Z,81.14
2023-08-21T05:25:50.054Z,80.62
2023-08-21T05:28:22.438Z,80.63
2023-08-21T05:30:57.354Z,80.58
2023-08-21T05:33:29.758Z,80.66
2023-08-21T05:36:02.720Z,81.07
2023-08-21T05:38:35.019Z,81.12
2023-08-21T05:41:07.572Z,81.13
2023-08-21T05:43:40.818Z,80.89
2023-08-21T05:46:15.783Z,80.86
2023-08-21T05:48:48.691Z,80.87
2023-08-21T05:51:21.161Z,80.47
2023-08-21T05:53:53.554Z,80.12
2023-08-21T05:56:26.954Z,79.71
2023-08-21T05:59:00.666Z,79.30
2023-08-21T06:01:35.592Z,78.92
2023-08-21T06:04:08.444Z,78.70
2023-08-21T06:06:41.043Z,78.65
2023-08-21T06:09:13.773Z,78.12
2023-08-21T06:11:46.040Z,77.05
2023-08-21T06:14:18.424Z,76.83
2023-08-21T06:16:53.274Z,76.57
2023-08-21T06:19:25.679Z,76.02
2023-08-21T06:21:58.219Z,75.51
2023-08-21T06:24:31.295Z,74.14
2023-08-21T06:27:05.998Z,73.70
2023-08-21T06:29:41.730Z,72.75
2023-08-21T06:32:17.713Z,72.02
2023-08-21T06:34:51.515Z,71.95
2023-08-21T06:37:23.817Z,71.72
2023-08-21T06:39:56.341Z,71.03
2023-08-21T06:42:29.052Z,69.80
2023-08-21T06:45:01.325Z,69.30
2023-08-21T06:47:36.387Z,69.64
2023-08-21T06:50:09.413Z,69.65
2023-08-21T06:52:41.824Z,69.30
2023-08-21T06:55:14.358Z,68.12
2023-08-21T06:57:46.659Z,67.76
2023-08-21T07:00:19.783Z,66.91
2023-08-21T07:02:55.164Z,67.00
2023-08-21T07:05:27.638Z,66.03
2023-08-21T07:07:59.958Z,64.54
2023-08-21T07:10:33.035Z,65.02
2023-08-21T07:13:05.437Z,65.69
2023-08-21T07:15:37.833Z,65.09
2023-08-21T07:18:13.087Z,65.38
2023-08-21T07:20:45.719Z,63.95
2023-08-21T07:23:18.617Z,63.55
2023-08-21T07:25:50.995Z,62.81
2023-08-21T07:28:23.464Z,61.59
2023-08-21T07:31:00.692Z,60.56
2023-08-21T07:33:35.597Z,60.30
2023-08-21T07:36:10.552Z,60.08
2023-08-21T07:38:43.097Z,59.81
2023-08-21T07:41:17.087Z,60.15
2023-08-21T07:43:50.138Z,60.09
2023-08-21T07:46:22.484Z,60.64
2023-08-21T07:48:58.400Z,61.24
2023-08-21T07:51:30.722Z,60.79
2023-08-21T07:54:03.037Z,60.05
2023-08-21T07:56:36.881Z,59.10
2023-08-21T07:59:09.385Z,58.80
2023-08-21T08:01:41.677Z,56.57
2023-08-21T08:04:16.801Z,55.49
2023-08-21T08:06:49.136Z,54.97
2023-08-21T08:09:22.313Z,54.99
2023-08-21T08:11:54.583Z,55.76
2023-08-21T08:14:26.974Z,55.19
2023-08-21T08:16:59.276Z,55.78
2023-08-21T08:19:36.454Z,55.97
2023-08-21T08:22:08.949Z,56.29
2023-08-21T08:24:51.932Z,55.87
2023-08-21T08:27:24.212Z,55.38
2023-08-21T08:29:56.947Z,55.45
2023-08-21T08:32:29.945Z,55.92
2023-08-21T08:35:05.017Z,54.97
2023-08-21T08:37:37.351Z,54.96
2023-08-21T08:40:11.727Z,54.80
2023-08-21T08:42:44.655Z,54.48
2023-08-21T08:45:19.388Z,53.71
2023-08-21T08:47:52.652Z,53.44
2023-08-21T08:50:32.823Z,52.60
2023-08-21T08:53:16.113Z,52.76
2023-08-21T08:55:50.743Z,52.65
2023-08-21T08:58:23.123Z,51.81
2023-08-21T09:00:56.078Z,51.41
2023-08-21T09:03:28.882Z,51.05
2023-08-21T09:06:04.093Z,51.28
2023-08-21T09:08:36.616Z,50.69
2023-08-21T09:11:08.960Z,50.62
2023-08-21T09:13:42.704Z,51.25
2023-08-21T09:16:15.616Z,51.49
2023-08-21T09:18:53.197Z,51.71
2023-08-21T09:21:30.145Z,51.20
2023-08-21T09:24:04.684Z,50.77
2023-08-21T09:26:37.617Z,50.20
2023-08-21T09:29:10.435Z,49.87
2023-08-21T09:31:45.027Z,50.79
2023-08-21T09:34:17.557Z,51.16
2023-08-21T09:36:59.967Z,51.08
2023-08-21T09:39:39.013Z,50.33
2023-08-21T09:42:34.512Z,50.72
2023-08-21T09:45:07.145Z,49.72
2023-08-21T09:47:40.739Z,49.07
2023-08-21T09:50:14.419Z,47.74
2023-08-21T09:52:51.007Z,48.23
2023-08-21T09:55:23.962Z,47.87
2023-08-21T09:57:59.873Z,47.76
2023-08-21T10:00:38.608Z,47.48
2023-08-21T10:03:13.402Z,48.22
2023-08-21T10:05:47.119Z,47.86
2023-08-21T10:08:29.789Z,47.74
2023-08-21T10:11:04.711Z,48.35
2023-08-21T10:13:39.751Z,48.63
2023-08-21T10:16:13.490Z,48.17
2023-08-21T10:18:50.632Z,47.55
2023-08-21T10:21:28.751Z,47.67
2023-08-21T10:24:06.003Z,46.93
2023-08-21T10:26:47.721Z,46.69
2023-08-21T10:29:20.432Z,46.02
2023-08-21T10:32:05.027Z,46.16
2023-08-21T10:34:39.710Z,45.51
2023-08-21T10:37:14.240Z,46.66
2023-08-21T10:40:04.001Z,46.69
2023-08-21T10:42:46.186Z,45.07
2023-08-21T10:45:18.941Z,44.94
2023-08-21T10:47:51.951Z,44.78
2023-08-21T10:50:24.556Z,44.62
2023-08-21T10:52:58.882Z,43.88
2023-08-21T10:55:34.919Z,44.26
2023-08-21T10:58:12.672Z,43.26
2023-08-21T11:00:46.146Z,42.57
2023-08-21T11:03:20.751Z,43.05
2023-08-21T11:06:06.693Z,42.63
2023-08-21T11:08:39.918Z,41.83
2023-08-21T11:11:16.387Z,41.99
2023-08-21T11:13:58.281Z,41.82
2023-08-21T11:16:30.795Z,40.33
2023-08-21T11:19:08.510Z,40.58
2023-08-21T11:21:40.806Z,40.53
2023-08-21T11:24:13.765Z,40.81
2023-08-21T11:26:48.917Z,40.53
2023-08-21T11:29:22.440Z,40.44
2023-08-21T11:31:54.944Z,39.96
2023-08-21T11:34:27.401Z,40.16
2023-08-21T11:37:00.186Z,38.79
2023-08-21T11:39:43.228Z,38.75
2023-08-21T11:42:19.335Z,38.48
2023-08-21T11:44:54.684Z,37.81
2023-08-21T11:47:28.397Z,38.09
2023-08-21T11:50:01.164Z,37.59
2023-08-21T11:52:39.592Z,37.65
2023-08-21T11:55:14.828Z,37.49
2023-08-21T11:57:57.436Z,37.71
2023-08-21T12:00:35.431Z,37.85
2023-08-21T12:03:09.917Z,38.66
2023-08-21T12:05:48.769Z,38.23
2023-08-21T12:08:21.018Z,37.13
2023-08-21T12:10:56.356Z,37.02
2023-08-21T12:13:32.657Z,37.21
2023-08-21T12:16:06.541Z,37.77
2023-08-21T12:18:39.073Z,37.55
2023-08-21T12:21:11.792Z,37.08
2023-08-21T12:23:44.115Z,36.63
2023-08-21T12:26:21.782Z,36.34
2023-08-21T12:28:56.917Z,36.12
2023-08-21T12:31:29.271Z,36.36
2023-08-21T12:34:01.630Z,35.92
2023-08-21T12:36:34.019Z,35.86
2023-08-21T12:39:06.772Z,35.12
2023-08-21T12:41:39.119Z,35.84
2023-08-21T12:44:14.087Z,35.57
2023-08-21T12:46:46.549Z,34.32
2023-08-21T12:49:19.237Z,34.20
2023-08-21T12:51:51.667Z,34.38
2023-08-21T12:54:24.097Z,34.36
2023-08-21T12:56:57.886Z,35.44
2023-08-21T12:59:33.122Z,34.18
2023-08-21T13:02:05.674Z,34.11
2023-08-21T13:04:39.210Z,34.60
2023-08-21T13:07:11.603Z,35.03
2023-08-21T13:09:44.351Z,34.61
2023-08-21T13:12:17.844Z,34.35
2023-08-21T13:14:52.827Z,33.57
2023-08-21T13:17:25.324Z,33.82
2023-08-21T13:19:57.918Z,33.94
2023-08-21T13:22:30.203Z,33.73
2023-08-21T13:25:02.474Z,33.31
2023-08-21T13:27:35.011Z,32.43
2023-08-21T13:30:11.942Z,32.84
2023-08-21T13:32:44.410Z,33.20
2023-08-21T13:35:18.149Z,32.41
2023-08-21T13:37:50.820Z,31.62
2023-08-21T13:40:24.395Z,30.76
2023-08-21T13:43:02.675Z,30.23
2023-08-21T13:45:38.056Z,29.14
2023-08-21T13:48:11.009Z,29.85
2023-08-21T13:50:43.780Z,30.11
2023-08-21T13:53:16.107Z,30.31
2023-08-21T13:55:48.425Z,30.23
2023-08-21T13:58:20.868Z,29.93
2023-08-21T14:00:57.126Z,30.14
2023-08-21T14:03:29.536Z,30.51
2023-08-21T14:06:01.822Z,30.27
2023-08-21T14:08:34.103Z,29.90
2023-08-21T14:11:06.546Z,28.78
2023-08-21T14:13:38.853Z,28.06
2023-08-21T14:16:14.278Z,28.65
2023-08-21T14:18:46.873Z,29.49
2023-08-21T14:21:19.179Z,30.84
2023-08-21T14:23:51.406Z,31.90
2023-08-21T14:26:23.663Z,31.52
2023-08-21T14:28:56.177Z,29.28
2023-08-21T14:31:31.219Z,27.69
2023-08-21T14:34:03.933Z,25.78
2023-08-21T14:36:36.524Z,26.26
2023-08-21T14:39:09.064Z,25.30
2023-08-21T14:41:41.662Z,24.33
2023-08-21T14:44:16.257Z,23.30
2023-08-21T14:46:51.554Z,23.13
2023-08-21T14:49:24.457Z,23.64
2023-08-21T14:51:56.876Z,23.65
2023-08-21T14:54:29.474Z,22.96
2023-08-21T14:57:01.771Z,23.53
2023-08-21T14:59:34.552Z,23.93
2023-08-21T15:02:09.575Z,24.16
2023-08-21T15:04:42.063Z,23.85
2023-08-21T15:07:14.559Z,23.25
2023-08-21T15:09:47.074Z,22.52
2023-08-21T15:12:20.200Z,22.77
2023-08-21T15:14:52.731Z,23.27
2023-08-21T15:17:28.992Z,22.91
2023-08-21T15:20:01.730Z,22.83
2023-08-21T15:22:34.045Z,23.01
2023-08-21T15:25:06.438Z,23.08
2023-08-21T15:27:39.095Z,23.02
2023-08-21T15:30:15.471Z,23.19
2023-08-21T15:32:50.863Z,23.30
2023-08-21T15:35:23.510Z,23.41
2023-08-21T15:37:56.177Z,23.84
2023-08-21T15:40:28.900Z,23.87
2023-08-21T15:43:03.964Z,23.83
2023-08-21T15:45:36.288Z,24.11
2023-08-21T15:48:11.611Z,25.44
2023-08-21T15:50:44.464Z,28.48
2023-08-21T15:53:17.676Z,30.47
2023-08-21T15:55:49.902Z,32.44
2023-08-21T15:58:22.318Z,33.07
2023-08-21T16:00:54.782Z,33.27
2023-08-21T16:03:29.869Z,33.48
2023-08-21T16:06:02.172Z,31.90
2023-08-21T16:08:34.640Z,29.13
2023-08-21T16:11:07.068Z,27.17
2023-08-21T16:13:39.338Z,26.28
2023-08-21T16:16:11.728Z,25.52
2023-08-21T16:18:47.917Z,25.36
2023-08-21T16:21:20.240Z,25.05
2023-08-21T16:23:52.529Z,25.07
2023-08-21T16:26:24.830Z,24.55
2023-08-21T16:28:57.566Z,24.50
2023-08-21T16:31:30.075Z,24.13
2023-08-21T16:34:05.079Z,23.64
2023-08-21T16:36:37.526Z,24.19
2023-08-21T16:39:10.367Z,24.80
2023-08-21T16:41:42.741Z,24.74
2023-08-21T16:44:15.051Z,24.64
2023-08-21T16:46:47.314Z,24.63
2023-08-21T16:49:25.697Z,24.53
2023-08-21T16:51:57.980Z,24.36
2023-08-21T16:54:30.382Z,24.61
2023-08-21T16:57:03.012Z,24.45
2023-08-21T16:59:35.465Z,24.74
2023-08-21T17:02:08.939Z,25.16
2023-08-21T17:04:43.877Z,25.59
2023-08-21T17:07:16.100Z,25.67
2023-08-21T17:09:50.711Z,27.66
2023-08-21T17:12:23.811Z,32.96
2023-08-21T17:14:56.188Z,35.46
2023-08-21T17:17:28.613Z,37.45
2023-08-21T17:20:04.133Z,39.56
2023-08-21T17:22:36.494Z,40.77
2023-08-21T17:25:15.040Z,41.67
2023-08-21T17:27:48.098Z,42.50
2023-08-21T17:30:20.998Z,43.15
2023-08-21T17:32:54.407Z,43.99
2023-08-21T17:35:30.550Z,44.40
2023-08-21T17:38:03.021Z,44.89
2023-08-21T17:40:35.788Z,45.42
2023-08-21T17:43:09.032Z,45.66
2023-08-21T17:45:41.980Z,46.10
2023-08-21T17:48:14.529Z,46.73
2023-08-21T17:50:51.662Z,47.00
2023-08-21T17:53:24.298Z,47.23
2023-08-21T17:55:57.107Z,47.75
2023-08-21T17:58:33.098Z,48.06
2023-08-21T18:01:05.597Z,48.37
2023-08-21T18:03:37.886Z,48.63
2023-08-21T18:06:13.731Z,48.58
2023-08-21T18:08:46.457Z,49.10
2023-08-21T18:11:18.948Z,49.49
2023-08-21T18:13:51.966Z,49.55
2023-08-21T18:16:25.821Z,49.99
2023-08-21T18:18:58.548Z,50.12
2023-08-21T18:21:34.709Z,50.48
2023-08-21T18:24:07.149Z,50.87
2023-08-21T18:26:42.615Z,51.85
2023-08-21T18:29:14.962Z,52.22
2023-08-21T18:31:47.299Z,52.54
2023-08-21T18:34:19.576Z,52.87
2023-08-21T18:36:54.468Z,53.75
2023-08-21T18:39:27.016Z,54.59
2023-08-21T18:41:59.427Z,55.44
2023-08-21T18:44:31.832Z,55.74
2023-08-21T18:47:04.628Z,56.20
2023-08-21T18:49:37.397Z,56.67
2023-08-21T18:52:12.447Z,57.05
2023-08-21T18:54:44.712Z,57.13
2023-08-21T18:57:16.919Z,58.01
2023-08-21T18:59:50.644Z,58.78
2023-08-21T19:02:23.973Z,59.55
2023-08-21T19:04:56.273Z,59.80
2023-08-21T19:07:31.340Z,59.89
2023-08-21T19:10:06.105Z,60.58
2023-08-21T19:12:38.443Z,60.98
2023-08-21T19:15:12.371Z,61.77
2023-08-21T19:17:44.772Z,62.71
2023-08-21T19:20:17.762Z,63.40
2023-08-21T19:22:54.066Z,63.45
2023-08-21T19:25:26.720Z,63.87
2023-08-21T19:27:59.182Z,64.36
2023-08-21T19:30:31.585Z,64.74
2023-08-21T19:33:03.951Z,64.93
2023-08-21T19:35:37.979Z,65.39
2023-08-21T19:38:14.754Z,65.50
2023-08-21T19:40:48.611Z,66.02
2023-08-21T19:43:21.119Z,66.50
2023-08-21T19:45:59.280Z,66.92
2023-08-21T19:48:31.689Z,67.17
2023-08-21T19:51:04.162Z,67.30
2023-08-21T19:53:39.070Z,67.77
2023-08-21T19:56:11.390Z,68.39
2023-08-21T19:58:44.929Z,68.75
2023-08-21T20:01:17.375Z,69.32
2023-08-21T20:03:50.188Z,69.48
2023-08-21T20:06:22.621Z,69.93
2023-08-21T20:08:57.797Z,69.71
2023-08-21T20:11:30.452Z,70.12
2023-08-21T20:14:02.893Z,70.29
2023-08-21T20:16:35.293Z,70.41
2023-08-21T20:19:10.140Z,70.59
2023-08-21T20:21:42.593Z,70.70
2023-08-21T20:24:18.762Z,71.13
2023-08-21T20:26:51.050Z,71.00
2023-08-21T20:29:24.197Z,71.26
2023-08-21T20:31:56.466Z,71.49
2023-08-21T20:34:28.833Z,71.50
2023-08-21T20:37:01.281Z,71.91
2023-08-21T20:39:36.784Z,72.22
2023-08-21T20:42:10.191Z,72.31
2023-08-21T20:44:42.652Z,72.36
2023-08-21T20:47:15.531Z,72.63
2023-08-21T20:49:48.240Z,72.64
2023-08-21T20:52:20.538Z,72.83
2023-08-21T20:54:55.475Z,72.94
2023-08-21T20:57:27.791Z,73.15
2023-08-21T21:00:00.368Z,72.98
2023-08-21T21:02:32.765Z,72.97
2023-08-21T21:05:05.432Z,73.22
2023-08-21T21:07:39.567Z,73.44
2023-08-21T21:10:16.065Z,73.56
2023-08-21T21:12:48.420Z,73.42
2023-08-21T21:15:20.785Z,73.23
2023-08-21T21:17:53.350Z,73.54
2023-08-21T21:20:25.794Z,73.54
2023-08-21T21:22:58.207Z,73.68
2023-08-21T21:25:33.198Z,73.72
2023-08-21T21:28:05.694Z,74.16
2023-08-21T21:30:38.280Z,74.46
2023-08-21T21:33:10.585Z,74.41
2023-08-21T21:35:43.882Z,74.41
2023-08-21T21:38:16.148Z,74.33
2023-08-21T21:40:51.217Z,74.59
2023-08-21T21:43:24.840Z,74.74
2023-08-21T21:46:01.323Z,74.85
2023-08-21T21:48:33.870Z,74.96
2023-08-21T21:51:09.098Z,74.99
2023-08-21T21:53:41.361Z,74.86
2023-08-21T21:56:16.511Z,74.79
2023-08-21T21:58:50.390Z,74.92
2023-08-21T22:01:22.771Z,74.80
2023-08-21T22:03:55.394Z,75.36
2023-08-21T22:06:27.751Z,75.66
2023-08-21T22:09:00.203Z,76.01
2023-08-21T22:11:35.057Z,76.18
2023-08-21T22:14:07.353Z,76.24
2023-08-21T22:16:39.675Z,76.21
2023-08-21T22:19:12.503Z,76.00
2023-08-21T22:21:46.660Z,76.17
2023-08-21T22:24:19.029Z,76.05
2023-08-21T22:26:53.973Z,75.99
2023-08-21T22:29:26.569Z,75.96
2023-08-21T22:31:58.865Z,75.89
2023-08-21T22:34:31.257Z,75.64
2023-08-21T22:37:03.606Z,75.48
2023-08-21T22:39:36.153Z,76.10
2023-08-21T22:42:11.576Z,76.05
2023-08-21T22:44:43.932Z,76.05
2023-08-21T22:47:16.330Z,75.89
2023-08-21T22:49:48.856Z,76.04
2023-08-21T22:52:21.173Z,76.29
2023-08-21T22:54:53.705Z,76.25
2023-08-21T22:57:28.945Z,75.99
2023-08-21T23:00:01.404Z,76.25
2023-08-21T23:02:33.708Z,76.44
2023-08-21T23:05:06.866Z,76.25
2023-08-21T23:07:39.728Z,76.46
2023-08-21T23:10:13.315Z,76.56
2023-08-21T23:12:48.214Z,76.58
2023-08-21T23:15:20.687Z,76.48
2023-08-21T23:17:53.253Z,76.15
2023-08-21T23:20:26.416Z,76.29
2023-08-21T23:22:58.660Z,76.39
2023-08-21T23:25:30.980Z,76.01
2023-08-21T23:28:05.918Z,75.70
2023-08-21T23:30:41.902Z,76.47
2023-08-21T23:33:14.216Z,76.43
2023-08-21T23:35:46.643Z,76.22
2023-08-21T23:38:19.105Z,76.02
2023-08-21T23:40:51.820Z,76.19
2023-08-21T23:43:27.558Z,76.35
2023-08-21T23:45:59.991Z,76.47
2023-08-21T23:48:32.808Z,76.67
2023-08-21T23:51:05.616Z,76.73
2023-08-21T23:53:38.006Z,76.72
2023-08-21T23:56:11.547Z,76.98
2023-08-21T23:58:47.038Z,77.16
